Forside
METAR-TAF:

METAR-TAF

Lufthavne :

Stanton, Minnesota, USA

Breddekreds: 44-28-32N, længdekreds: 093-00-59W, højde: 280 m

Aktuelle vejr

Denne rapport blev lavet for 9 timer og 32 minutter siden, kl. 00:15 UTC
Vind 5 kt fra vestsydvest
Temperatur 23°C
Fugtighed 65%
Tryk 1020 hPa
Sigt: 8.0 km
skyfri
tåge/dis

METAR: KSYN 310015Z AUTO 25005KT 5SM HZ CLR 23/16 A3011 RMK AO2 T02290162

Tid: 04:47 (09:47 UTC)


TAF: fraværende

Vejrobservationer og prognoser fra mere end 4000 lufthavne (METAR og TAF).

De gule og røde prikker repræsenterer de meteorologiske stationer.

Flyt musen over at se navnet på stationen.

Så klik over at se vejr observationer og prognoser.

At skifte det kort: Klik på de grønne knapper med et sort kors for at zoome ind; på den grønne knap med en bindestreg for at zoome ud; eller på de grønne pile for tilstødende kort.


METAR-TAF: